sensor_id;sensor_type;location;lat;lon;timestamp;temperature;humidity
2967;DHT22;1493;51.496;7.210;2022-10-31T00:00:06;15.70;99.90
2967;DHT22;1493;51.496;7.210;2022-10-31T00:02:33;15.80;99.90
2967;DHT22;1493;51.496;7.210;2022-10-31T00:05:00;15.80;99.90
2967;DHT22;1493;51.496;7.210;2022-10-31T00:07:28;15.80;99.90
2967;DHT22;1493;51.496;7.210;2022-10-31T00:09:55;15.80;99.90
2967;DHT22;1493;51.496;7.210;2022-10-31T00:12:21;15.80;99.90
2967;DHT22;1493;51.496;7.210;2022-10-31T00:14:48;15.90;99.90
2967;DHT22;1493;51.496;7.210;2022-10-31T00:17:15;15.90;99.90
2967;DHT22;1493;51.496;7.210;2022-10-31T00:19:42;15.90;99.90
2967;DHT22;1493;51.496;7.210;2022-10-31T00:22:08;15.90;99.90
2967;DHT22;1493;51.496;7.210;2022-10-31T00:24:36;15.90;99.90
2967;DHT22;1493;51.496;7.210;2022-10-31T00:27:03;15.90;99.90
2967;DHT22;1493;51.496;7.210;2022-10-31T00:29:30;15.90;99.90
2967;DHT22;1493;51.496;7.210;2022-10-31T00:31:57;15.90;99.90
2967;DHT22;1493;51.496;7.210;2022-10-31T00:34:24;15.90;99.90
2967;DHT22;1493;51.496;7.210;2022-10-31T00:36:50;15.90;99.90
2967;DHT22;1493;51.496;7.210;2022-10-31T00:39:17;15.90;99.90
2967;DHT22;1493;51.496;7.210;2022-10-31T00:41:45;15.90;99.90
2967;DHT22;1493;51.496;7.210;2022-10-31T00:44:12;15.90;99.90
2967;DHT22;1493;51.496;7.210;2022-10-31T00:46:39;15.80;99.90
2967;DHT22;1493;51.496;7.210;2022-10-31T00:49:05;15.80;99.90
2967;DHT22;1493;51.496;7.210;2022-10-31T00:51:32;15.80;99.90
2967;DHT22;1493;51.496;7.210;2022-10-31T00:53:59;15.80;99.90
2967;DHT22;1493;51.496;7.210;2022-10-31T00:56:26;15.80;99.90
2967;DHT22;1493;51.496;7.210;2022-10-31T00:58:54;15.70;99.90
2967;DHT22;1493;51.496;7.210;2022-10-31T01:01:21;15.70;99.90
2967;DHT22;1493;51.496;7.210;2022-10-31T01:03:47;15.70;99.90
2967;DHT22;1493;51.496;7.210;2022-10-31T01:06:14;15.70;99.90
2967;DHT22;1493;51.496;7.210;2022-10-31T01:08:41;15.70;99.90
2967;DHT22;1493;51.496;7.210;2022-10-31T01:11:11;15.70;99.90
2967;DHT22;1493;51.496;7.210;2022-10-31T01:13:38;15.60;99.90
2967;DHT22;1493;51.496;7.210;2022-10-31T01:16:08;15.60;99.90
2967;DHT22;1493;51.496;7.210;2022-10-31T01:18:36;15.70;99.90
2967;DHT22;1493;51.496;7.210;2022-10-31T01:21:04;15.70;99.90
2967;DHT22;1493;51.496;7.210;2022-10-31T01:23:32;15.70;99.90
2967;DHT22;1493;51.496;7.210;2022-10-31T01:26:05;15.70;99.90
2967;DHT22;1493;51.496;7.210;2022-10-31T01:28:33;15.70;99.90
2967;DHT22;1493;51.496;7.210;2022-10-31T01:31:01;15.70;99.90
2967;DHT22;1493;51.496;7.210;2022-10-31T01:33:29;15.70;99.90
2967;DHT22;1493;51.496;7.210;2022-10-31T01:35:56;15.70;99.90
2967;DHT22;1493;51.496;7.210;2022-10-31T01:38:23;15.70;99.90
2967;DHT22;1493;51.496;7.210;2022-10-31T01:40:50;15.70;99.90
2967;DHT22;1493;51.496;7.210;2022-10-31T01:43:17;15.70;99.90
2967;DHT22;1493;51.496;7.210;2022-10-31T01:45:49;15.70;99.90
2967;DHT22;1493;51.496;7.210;2022-10-31T01:48:19;15.70;99.90
2967;DHT22;1493;51.496;7.210;2022-10-31T01:50:51;15.70;99.90
2967;DHT22;1493;51.496;7.210;2022-10-31T01:53:20;15.80;99.90
2967;DHT22;1493;51.496;7.210;2022-10-31T01:55:47;15.80;99.90
2967;DHT22;1493;51.496;7.210;2022-10-31T01:58:16;15.80;99.90
2967;DHT22;1493;51.496;7.210;2022-10-31T02:00:48;15.80;99.90
2967;DHT22;1493;51.496;7.210;2022-10-31T02:03:16;15.80;99.90
2967;DHT22;1493;51.496;7.210;2022-10-31T02:05:44;15.80;99.90
2967;DHT22;1493;51.496;7.210;2022-10-31T02:08:15;15.80;99.90
2967;DHT22;1493;51.496;7.210;2022-10-31T02:10:44;15.80;99.90
2967;DHT22;1493;51.496;7.210;2022-10-31T02:13:11;15.80;99.90
2967;DHT22;1493;51.496;7.210;2022-10-31T02:15:40;15.80;99.90
2967;DHT22;1493;51.496;7.210;2022-10-31T02:18:08;15.80;99.90
2967;DHT22;1493;51.496;7.210;2022-10-31T02:20:42;15.80;99.90
2967;DHT22;1493;51.496;7.210;2022-10-31T02:23:33;15.80;99.90
2967;DHT22;1493;51.496;7.210;2022-10-31T02:26:26;15.80;99.90
2967;DHT22;1493;51.496;7.210;2022-10-31T02:29:16;15.80;99.90
2967;DHT22;1493;51.496;7.210;2022-10-31T02:31:48;15.80;99.90
2967;DHT22;1493;51.496;7.210;2022-10-31T02:34:21;15.80;99.90
2967;DHT22;1493;51.496;7.210;2022-10-31T02:36:55;15.70;99.90
2967;DHT22;1493;51.496;7.210;2022-10-31T02:39:25;15.70;99.90
2967;DHT22;1493;51.496;7.210;2022-10-31T02:42:01;15.70;99.90
2967;DHT22;1493;51.496;7.210;2022-10-31T02:44:36;15.60;99.90
2967;DHT22;1493;51.496;7.210;2022-10-31T02:47:09;15.60;99.90
2967;DHT22;1493;51.496;7.210;2022-10-31T02:49:42;15.60;99.90
2967;DHT22;1493;51.496;7.210;2022-10-31T02:52:18;15.60;99.90
2967;DHT22;1493;51.496;7.210;2022-10-31T02:54:46;15.60;99.90
2967;DHT22;1493;51.496;7.210;2022-10-31T02:57:14;15.60;99.90
2967;DHT22;1493;51.496;7.210;2022-10-31T02:59:46;15.60;99.90
2967;DHT22;1493;51.496;7.210;2022-10-31T03:02:29;15.60;99.90
2967;DHT22;1493;51.496;7.210;2022-10-31T03:05:14;15.60;99.90
2967;DHT22;1493;51.496;7.210;2022-10-31T03:07:53;15.60;99.90
2967;DHT22;1493;51.496;7.210;2022-10-31T03:10:30;15.60;99.90
2967;DHT22;1493;51.496;7.210;2022-10-31T03:13:01;15.60;99.90
2967;DHT22;1493;51.496;7.210;2022-10-31T03:15:34;15.60;99.90
2967;DHT22;1493;51.496;7.210;2022-10-31T03:18:06;15.60;99.90
2967;DHT22;1493;51.496;7.210;2022-10-31T03:20:37;15.60;99.90
2967;DHT22;1493;51.496;7.210;2022-10-31T03:23:09;15.60;99.90
2967;DHT22;1493;51.496;7.210;2022-10-31T03:25:38;15.70;99.90
2967;DHT22;1493;51.496;7.210;2022-10-31T03:28:06;15.70;99.90
2967;DHT22;1493;51.496;7.210;2022-10-31T03:30:35;15.70;99.90
2967;DHT22;1493;51.496;7.210;2022-10-31T03:33:09;15.70;99.90
2967;DHT22;1493;51.496;7.210;2022-10-31T03:35:39;15.70;99.90
2967;DHT22;1493;51.496;7.210;2022-10-31T03:38:09;15.70;99.90
2967;DHT22;1493;51.496;7.210;2022-10-31T03:40:37;15.70;99.90
2967;DHT22;1493;51.496;7.210;2022-10-31T03:43:06;15.60;99.90
2967;DHT22;1493;51.496;7.210;2022-10-31T03:45:39;15.60;99.90
2967;DHT22;1493;51.496;7.210;2022-10-31T03:48:09;15.50;99.90
2967;DHT22;1493;51.496;7.210;2022-10-31T03:50:39;15.50;99.90
2967;DHT22;1493;51.496;7.210;2022-10-31T03:53:11;15.40;99.90
2967;DHT22;1493;51.496;7.210;2022-10-31T03:55:42;15.40;99.90
2967;DHT22;1493;51.496;7.210;2022-10-31T03:58:19;15.30;99.90
2967;DHT22;1493;51.496;7.210;2022-10-31T04:00:49;15.30;99.90
2967;DHT22;1493;51.496;7.210;2022-10-31T04:03:22;15.20;99.90
2967;DHT22;1493;51.496;7.210;2022-10-31T04:05:51;15.10;99.90
2967;DHT22;1493;51.496;7.210;2022-10-31T04:08:23;15.10;99.90
2967;DHT22;1493;51.496;7.210;2022-10-31T04:10:51;15.00;99.90
2967;DHT22;1493;51.496;7.210;2022-10-31T04:13:22;15.00;99.90
2967;DHT22;1493;51.496;7.210;2022-10-31T04:15:52;15.00;99.90
2967;DHT22;1493;51.496;7.210;2022-10-31T04:18:22;14.90;99.90
2967;DHT22;1493;51.496;7.210;2022-10-31T04:20:49;14.90;99.90
2967;DHT22;1493;51.496;7.210;2022-10-31T04:23:27;14.90;99.90
2967;DHT22;1493;51.496;7.210;2022-10-31T04:25:55;14.80;99.90
2967;DHT22;1493;51.496;7.210;2022-10-31T04:28:22;14.80;99.90
2967;DHT22;1493;51.496;7.210;2022-10-31T04:30:49;14.70;99.90
2967;DHT22;1493;51.496;7.210;2022-10-31T04:33:15;14.70;99.90
2967;DHT22;1493;51.496;7.210;2022-10-31T04:35:44;14.60;99.90
2967;DHT22;1493;51.496;7.210;2022-10-31T04:38:11;14.60;99.90
2967;DHT22;1493;51.496;7.210;2022-10-31T04:40:38;14.50;99.90
2967;DHT22;1493;51.496;7.210;2022-10-31T04:43:05;14.50;99.90
2967;DHT22;1493;51.496;7.210;2022-10-31T04:45:31;14.50;99.90
2967;DHT22;1493;51.496;7.210;2022-10-31T04:47:58;14.50;99.90
2967;DHT22;1493;51.496;7.210;2022-10-31T04:50:25;14.50;99.90
2967;DHT22;1493;51.496;7.210;2022-10-31T04:52:53;14.40;99.90
2967;DHT22;1493;51.496;7.210;2022-10-31T04:55:20;14.40;99.90
2967;DHT22;1493;51.496;7.210;2022-10-31T04:57:48;14.40;99.90
2967;DHT22;1493;51.496;7.210;2022-10-31T05:00:17;14.40;99.90
2967;DHT22;1493;51.496;7.210;2022-10-31T05:02:45;14.40;99.90
2967;DHT22;1493;51.496;7.210;2022-10-31T05:05:13;14.30;99.90
2967;DHT22;1493;51.496;7.210;2022-10-31T05:07:41;14.30;99.90
2967;DHT22;1493;51.496;7.210;2022-10-31T05:10:10;14.30;99.90
2967;DHT22;1493;51.496;7.210;2022-10-31T05:12:37;14.20;99.90
2967;DHT22;1493;51.496;7.210;2022-10-31T05:15:05;14.20;99.90
2967;DHT22;1493;51.496;7.210;2022-10-31T05:17:32;14.20;99.90
2967;DHT22;1493;51.496;7.210;2022-10-31T05:19:58;14.20;99.90
2967;DHT22;1493;51.496;7.210;2022-10-31T05:22:25;14.20;99.90
2967;DHT22;1493;51.496;7.210;2022-10-31T05:24:52;14.20;99.90
2967;DHT22;1493;51.496;7.210;2022-10-31T05:27:20;14.10;99.90
2967;DHT22;1493;51.496;7.210;2022-10-31T05:29:47;14.10;99.90
2967;DHT22;1493;51.496;7.210;2022-10-31T05:32:14;14.10;99.90
2967;DHT22;1493;51.496;7.210;2022-10-31T05:34:40;14.10;99.90
2967;DHT22;1493;51.496;7.210;2022-10-31T05:37:07;14.00;99.90
2967;DHT22;1493;51.496;7.210;2022-10-31T05:39:34;14.00;99.90
2967;DHT22;1493;51.496;7.210;2022-10-31T05:42:01;14.00;99.90
2967;DHT22;1493;51.496;7.210;2022-10-31T05:44:29;14.00;99.90
2967;DHT22;1493;51.496;7.210;2022-10-31T05:46:56;13.90;99.90
2967;DHT22;1493;51.496;7.210;2022-10-31T05:49:22;13.90;99.90
2967;DHT22;1493;51.496;7.210;2022-10-31T05:51:49;13.90;99.90
2967;DHT22;1493;51.496;7.210;2022-10-31T05:54:16;13.90;99.90
2967;DHT22;1493;51.496;7.210;2022-10-31T05:56:43;13.90;99.90
2967;DHT22;1493;51.496;7.210;2022-10-31T05:59:09;13.90;99.90
2967;DHT22;1493;51.496;7.210;2022-10-31T06:01:38;13.90;99.90
2967;DHT22;1493;51.496;7.210;2022-10-31T06:04:04;13.90;99.90
2967;DHT22;1493;51.496;7.210;2022-10-31T06:06:31;13.90;99.90
2967;DHT22;1493;51.496;7.210;2022-10-31T06:08:58;13.90;99.90
2967;DHT22;1493;51.496;7.210;2022-10-31T06:11:25;13.90;99.90
2967;DHT22;1493;51.496;7.210;2022-10-31T06:13:52;13.90;99.90
2967;DHT22;1493;51.496;7.210;2022-10-31T06:16:18;13.90;99.90
2967;DHT22;1493;51.496;7.210;2022-10-31T06:18:47;13.90;99.90
2967;DHT22;1493;51.496;7.210;2022-10-31T06:21:14;13.90;99.90
2967;DHT22;1493;51.496;7.210;2022-10-31T06:23:41;13.90;99.90
2967;DHT22;1493;51.496;7.210;2022-10-31T06:26:07;13.90;99.90
2967;DHT22;1493;51.496;7.210;2022-10-31T06:28:34;13.90;99.90
2967;DHT22;1493;51.496;7.210;2022-10-31T06:31:01;13.90;99.90
2967;DHT22;1493;51.496;7.210;2022-10-31T06:33:28;13.90;99.90
2967;DHT22;1493;51.496;7.210;2022-10-31T06:35:56;13.90;99.90
2967;DHT22;1493;51.496;7.210;2022-10-31T06:38:24;13.90;99.90
2967;DHT22;1493;51.496;7.210;2022-10-31T06:40:51;13.90;99.90
2967;DHT22;1493;51.496;7.210;2022-10-31T06:43:18;13.90;99.90
2967;DHT22;1493;51.496;7.210;2022-10-31T06:45:45;13.90;99.90
2967;DHT22;1493;51.496;7.210;2022-10-31T06:48:12;13.90;99.90
2967;DHT22;1493;51.496;7.210;2022-10-31T06:50:39;13.90;99.90
2967;DHT22;1493;51.496;7.210;2022-10-31T06:53:08;13.90;99.90
2967;DHT22;1493;51.496;7.210;2022-10-31T06:55:34;13.90;99.90
2967;DHT22;1493;51.496;7.210;2022-10-31T06:58:01;13.90;99.90
2967;DHT22;1493;51.496;7.210;2022-10-31T07:00:29;14.00;99.90
2967;DHT22;1493;51.496;7.210;2022-10-31T07:02:58;14.00;99.90
2967;DHT22;1493;51.496;7.210;2022-10-31T07:05:25;14.00;99.90
2967;DHT22;1493;51.496;7.210;2022-10-31T07:07:52;14.00;99.90
2967;DHT22;1493;51.496;7.210;2022-10-31T07:10:21;14.10;99.90
2967;DHT22;1493;51.496;7.210;2022-10-31T07:12:48;14.10;99.90
2967;DHT22;1493;51.496;7.210;2022-10-31T07:15:20;14.10;99.90
2967;DHT22;1493;51.496;7.210;2022-10-31T07:17:46;14.10;99.90
2967;DHT22;1493;51.496;7.210;2022-10-31T07:20:13;14.10;99.90
2967;DHT22;1493;51.496;7.210;2022-10-31T07:22:40;14.20;99.90
2967;DHT22;1493;51.496;7.210;2022-10-31T07:25:08;14.20;99.90
2967;DHT22;1493;51.496;7.210;2022-10-31T07:27:37;14.20;99.90
2967;DHT22;1493;51.496;7.210;2022-10-31T07:30:04;14.20;99.90
2967;DHT22;1493;51.496;7.210;2022-10-31T07:32:38;14.20;99.90
2967;DHT22;1493;51.496;7.210;2022-10-31T07:35:06;14.30;99.90
2967;DHT22;1493;51.496;7.210;2022-10-31T07:37:33;14.30;99.90
2967;DHT22;1493;51.496;7.210;2022-10-31T07:40:00;14.30;99.90
2967;DHT22;1493;51.496;7.210;2022-10-31T07:42:27;14.30;99.90
2967;DHT22;1493;51.496;7.210;2022-10-31T07:44:55;14.30;99.90
2967;DHT22;1493;51.496;7.210;2022-10-31T07:47:22;14.40;99.90
2967;DHT22;1493;51.496;7.210;2022-10-31T07:49:49;14.40;99.90
2967;DHT22;1493;51.496;7.210;2022-10-31T07:52:15;14.40;99.90
2967;DHT22;1493;51.496;7.210;2022-10-31T07:54:42;14.50;99.90
2967;DHT22;1493;51.496;7.210;2022-10-31T07:57:09;14.50;99.90
2967;DHT22;1493;51.496;7.210;2022-10-31T07:59:36;14.50;99.90
2967;DHT22;1493;51.496;7.210;2022-10-31T08:02:04;14.60;99.90
2967;DHT22;1493;51.496;7.210;2022-10-31T08:04:31;14.60;99.90
2967;DHT22;1493;51.496;7.210;2022-10-31T08:06:58;14.60;99.90
2967;DHT22;1493;51.496;7.210;2022-10-31T08:09:25;14.70;99.90
2967;DHT22;1493;51.496;7.210;2022-10-31T08:11:52;14.70;99.90
2967;DHT22;1493;51.496;7.210;2022-10-31T08:14:19;14.70;99.90
2967;DHT22;1493;51.496;7.210;2022-10-31T08:16:46;14.80;99.90
2967;DHT22;1493;51.496;7.210;2022-10-31T08:19:14;14.90;99.90
2967;DHT22;1493;51.496;7.210;2022-10-31T08:21:41;14.90;99.90
2967;DHT22;1493;51.496;7.210;2022-10-31T08:24:08;15.00;99.90
2967;DHT22;1493;51.496;7.210;2022-10-31T08:26:35;15.00;99.90
2967;DHT22;1493;51.496;7.210;2022-10-31T08:29:02;15.00;99.90
2967;DHT22;1493;51.496;7.210;2022-10-31T08:31:29;15.10;99.90
2967;DHT22;1493;51.496;7.210;2022-10-31T08:33:56;15.20;99.90
2967;DHT22;1493;51.496;7.210;2022-10-31T08:36:24;15.20;99.90
2967;DHT22;1493;51.496;7.210;2022-10-31T08:38:51;15.30;99.90
2967;DHT22;1493;51.496;7.210;2022-10-31T08:41:17;15.40;99.90
2967;DHT22;1493;51.496;7.210;2022-10-31T08:43:44;15.40;99.90
2967;DHT22;1493;51.496;7.210;2022-10-31T08:46:12;15.50;99.90
2967;DHT22;1493;51.496;7.210;2022-10-31T08:48:39;15.50;99.90
2967;DHT22;1493;51.496;7.210;2022-10-31T08:51:06;15.60;99.90
2967;DHT22;1493;51.496;7.210;2022-10-31T08:53:34;15.70;99.90
2967;DHT22;1493;51.496;7.210;2022-10-31T08:56:01;15.80;99.90
2967;DHT22;1493;51.496;7.210;2022-10-31T08:58:27;15.80;99.90
2967;DHT22;1493;51.496;7.210;2022-10-31T09:00:54;15.90;99.90
2967;DHT22;1493;51.496;7.210;2022-10-31T09:03:26;15.90;99.90
2967;DHT22;1493;51.496;7.210;2022-10-31T09:05:56;16.00;99.90
2967;DHT22;1493;51.496;7.210;2022-10-31T09:08:23;16.10;99.90
2967;DHT22;1493;51.496;7.210;2022-10-31T09:10:51;16.20;99.90
2967;DHT22;1493;51.496;7.210;2022-10-31T09:13:20;16.30;99.90
2967;DHT22;1493;51.496;7.210;2022-10-31T09:15:48;16.30;99.90
2967;DHT22;1493;51.496;7.210;2022-10-31T09:18:17;16.30;99.90
2967;DHT22;1493;51.496;7.210;2022-10-31T09:20:45;16.40;99.90
2967;DHT22;1493;51.496;7.210;2022-10-31T09:23:17;16.50;99.90
2967;DHT22;1493;51.496;7.210;2022-10-31T09:25:44;16.50;99.90
2967;DHT22;1493;51.496;7.210;2022-10-31T09:28:14;16.60;99.90
2967;DHT22;1493;51.496;7.210;2022-10-31T09:30:41;16.70;99.90
2967;DHT22;1493;51.496;7.210;2022-10-31T09:33:12;16.60;99.90
2967;DHT22;1493;51.496;7.210;2022-10-31T09:35:40;16.70;99.90
2967;DHT22;1493;51.496;7.210;2022-10-31T09:38:10;16.80;99.90
2967;DHT22;1493;51.496;7.210;2022-10-31T09:40:39;16.80;99.90
2967;DHT22;1493;51.496;7.210;2022-10-31T09:43:15;16.90;99.90
2967;DHT22;1493;51.496;7.210;2022-10-31T09:45:53;17.00;99.90
2967;DHT22;1493;51.496;7.210;2022-10-31T09:48:34;17.10;99.90
2967;DHT22;1493;51.496;7.210;2022-10-31T09:51:06;17.20;99.90
2967;DHT22;1493;51.496;7.210;2022-10-31T09:53:38;17.30;99.90
2967;DHT22;1493;51.496;7.210;2022-10-31T09:56:08;17.30;99.90
2967;DHT22;1493;51.496;7.210;2022-10-31T09:58:42;17.40;99.90
2967;DHT22;1493;51.496;7.210;2022-10-31T10:01:23;17.40;99.90
2967;DHT22;1493;51.496;7.210;2022-10-31T10:03:57;17.40;99.90
2967;DHT22;1493;51.496;7.210;2022-10-31T10:06:28;17.50;99.90
2967;DHT22;1493;51.496;7.210;2022-10-31T10:08:56;17.50;99.90
2967;DHT22;1493;51.496;7.210;2022-10-31T10:11:32;17.50;99.90
2967;DHT22;1493;51.496;7.210;2022-10-31T10:14:25;17.50;99.90
2967;DHT22;1493;51.496;7.210;2022-10-31T10:17:09;17.50;99.90
2967;DHT22;1493;51.496;7.210;2022-10-31T10:20:02;17.60;99.90
2967;DHT22;1493;51.496;7.210;2022-10-31T10:22:38;17.70;99.90
2967;DHT22;1493;51.496;7.210;2022-10-31T10:25:16;17.80;99.90
2967;DHT22;1493;51.496;7.210;2022-10-31T10:27:54;17.90;99.90
2967;DHT22;1493;51.496;7.210;2022-10-31T10:30:33;18.00;99.90
2967;DHT22;1493;51.496;7.210;2022-10-31T10:33:04;18.10;99.90
2967;DHT22;1493;51.496;7.210;2022-10-31T10:35:35;18.20;99.90
2967;DHT22;1493;51.496;7.210;2022-10-31T10:38:12;18.20;99.90
2967;DHT22;1493;51.496;7.210;2022-10-31T10:40:42;18.20;99.90
2967;DHT22;1493;51.496;7.210;2022-10-31T10:43:21;18.40;99.90
2967;DHT22;1493;51.496;7.210;2022-10-31T10:45:57;18.50;99.90
2967;DHT22;1493;51.496;7.210;2022-10-31T10:48:44;18.80;99.90
2967;DHT22;1493;51.496;7.210;2022-10-31T10:51:20;19.30;99.90
2967;DHT22;1493;51.496;7.210;2022-10-31T10:53:58;19.80;99.90
2967;DHT22;1493;51.496;7.210;2022-10-31T10:56:39;20.00;99.90
2967;DHT22;1493;51.496;7.210;2022-10-31T10:59:11;20.20;99.90
2967;DHT22;1493;51.496;7.210;2022-10-31T11:01:40;20.20;99.90
2967;DHT22;1493;51.496;7.210;2022-10-31T11:04:28;20.10;99.90
2967;DHT22;1493;51.496;7.210;2022-10-31T11:07:00;19.80;99.90
2967;DHT22;1493;51.496;7.210;2022-10-31T11:09:27;19.70;99.90
2967;DHT22;1493;51.496;7.210;2022-10-31T11:11:55;19.50;99.90
2967;DHT22;1493;51.496;7.210;2022-10-31T11:14:23;19.30;99.90
2967;DHT22;1493;51.496;7.210;2022-10-31T11:16:55;19.30;99.90
2967;DHT22;1493;51.496;7.210;2022-10-31T11:19:24;19.30;99.90
2967;DHT22;1493;51.496;7.210;2022-10-31T11:21:52;19.20;99.90
2967;DHT22;1493;51.496;7.210;2022-10-31T11:24:21;19.20;99.90
2967;DHT22;1493;51.496;7.210;2022-10-31T11:26:50;19.10;99.90
2967;DHT22;1493;51.496;7.210;2022-10-31T11:29:21;19.00;99.90
2967;DHT22;1493;51.496;7.210;2022-10-31T11:31:52;18.90;99.90
2967;DHT22;1493;51.496;7.210;2022-10-31T11:34:28;18.90;99.90
2967;DHT22;1493;51.496;7.210;2022-10-31T11:37:01;18.90;99.90
2967;DHT22;1493;51.496;7.210;2022-10-31T11:39:29;18.80;99.90
2967;DHT22;1493;51.496;7.210;2022-10-31T11:42:01;18.80;99.90
2967;DHT22;1493;51.496;7.210;2022-10-31T11:44:30;18.80;99.90
2967;DHT22;1493;51.496;7.210;2022-10-31T11:47:01;18.90;99.90
2967;DHT22;1493;51.496;7.210;2022-10-31T11:49:31;18.90;99.90
2967;DHT22;1493;51.496;7.210;2022-10-31T11:52:01;19.10;99.90
2967;DHT22;1493;51.496;7.210;2022-10-31T11:54:32;19.10;99.90
2967;DHT22;1493;51.496;7.210;2022-10-31T11:57:01;19.10;99.90
2967;DHT22;1493;51.496;7.210;2022-10-31T11:59:30;19.30;99.90
2967;DHT22;1493;51.496;7.210;2022-10-31T12:02:01;19.40;99.90
2967;DHT22;1493;51.496;7.210;2022-10-31T12:04:39;19.40;99.90
2967;DHT22;1493;51.496;7.210;2022-10-31T12:07:09;19.40;99.90
2967;DHT22;1493;51.496;7.210;2022-10-31T12:09:37;19.50;99.90
2967;DHT22;1493;51.496;7.210;2022-10-31T12:12:35;19.50;99.90
2967;DHT22;1493;51.496;7.210;2022-10-31T12:15:17;19.50;99.90
2967;DHT22;1493;51.496;7.210;2022-10-31T12:17:52;19.60;99.90
2967;DHT22;1493;51.496;7.210;2022-10-31T12:20:26;19.60;99.90
2967;DHT22;1493;51.496;7.210;2022-10-31T12:23:00;19.70;99.90
2967;DHT22;1493;51.496;7.210;2022-10-31T12:25:37;19.70;99.90
2967;DHT22;1493;51.496;7.210;2022-10-31T12:28:30;19.80;99.90
2967;DHT22;1493;51.496;7.210;2022-10-31T12:31:12;19.90;99.90
2967;DHT22;1493;51.496;7.210;2022-10-31T12:33:55;20.10;99.90
2967;DHT22;1493;51.496;7.210;2022-10-31T12:36:33;20.10;99.90
2967;DHT22;1493;51.496;7.210;2022-10-31T12:39:12;20.20;99.90
2967;DHT22;1493;51.496;7.210;2022-10-31T12:41:47;20.40;99.90
2967;DHT22;1493;51.496;7.210;2022-10-31T12:44:40;20.50;99.90
2967;DHT22;1493;51.496;7.210;2022-10-31T12:47:29;20.60;99.90
2967;DHT22;1493;51.496;7.210;2022-10-31T12:52:57;21.10;99.90
2967;DHT22;1493;51.496;7.210;2022-10-31T12:55:37;21.30;99.90
2967;DHT22;1493;51.496;7.210;2022-10-31T12:58:10;21.60;99.90
2967;DHT22;1493;51.496;7.210;2022-10-31T13:00:44;22.10;99.90
2967;DHT22;1493;51.496;7.210;2022-10-31T13:03:23;22.30;99.90
2967;DHT22;1493;51.496;7.210;2022-10-31T13:05:56;22.50;99.90
2967;DHT22;1493;51.496;7.210;2022-10-31T13:08:28;22.50;99.90
2967;DHT22;1493;51.496;7.210;2022-10-31T13:11:13;22.50;99.90
2967;DHT22;1493;51.496;7.210;2022-10-31T13:13:43;22.60;99.90
2967;DHT22;1493;51.496;7.210;2022-10-31T13:16:14;22.60;99.90
2967;DHT22;1493;51.496;7.210;2022-10-31T13:18:44;22.70;99.90
2967;DHT22;1493;51.496;7.210;2022-10-31T13:21:19;22.80;99.90
2967;DHT22;1493;51.496;7.210;2022-10-31T13:23:49;22.90;99.90
2967;DHT22;1493;51.496;7.210;2022-10-31T13:26:22;22.70;99.90
2967;DHT22;1493;51.496;7.210;2022-10-31T13:28:56;22.50;99.90
2967;DHT22;1493;51.496;7.210;2022-10-31T13:31:26;22.20;99.90
2967;DHT22;1493;51.496;7.210;2022-10-31T13:33:55;22.00;99.90
2967;DHT22;1493;51.496;7.210;2022-10-31T13:36:31;21.80;99.90
2967;DHT22;1493;51.496;7.210;2022-10-31T13:39:04;21.60;99.90
2967;DHT22;1493;51.496;7.210;2022-10-31T13:41:43;21.40;99.90
2967;DHT22;1493;51.496;7.210;2022-10-31T13:44:14;21.30;99.90
2967;DHT22;1493;51.496;7.210;2022-10-31T13:46:43;21.10;99.90
2967;DHT22;1493;51.496;7.210;2022-10-31T13:49:39;20.90;99.90
2967;DHT22;1493;51.496;7.210;2022-10-31T13:52:14;20.90;99.90
2967;DHT22;1493;51.496;7.210;2022-10-31T13:54:43;20.80;99.90
2967;DHT22;1493;51.496;7.210;2022-10-31T13:57:16;20.70;99.90
2967;DHT22;1493;51.496;7.210;2022-10-31T13:59:49;20.70;99.90
2967;DHT22;1493;51.496;7.210;2022-10-31T14:02:18;20.70;99.90
2967;DHT22;1493;51.496;7.210;2022-10-31T14:04:48;20.70;99.90
2967;DHT22;1493;51.496;7.210;2022-10-31T14:07:20;20.70;99.90
2967;DHT22;1493;51.496;7.210;2022-10-31T14:09:56;20.70;99.90
2967;DHT22;1493;51.496;7.210;2022-10-31T14:12:27;20.70;99.90
2967;DHT22;1493;51.496;7.210;2022-10-31T14:14:57;20.70;99.90
2967;DHT22;1493;51.496;7.210;2022-10-31T14:17:28;20.70;99.90
2967;DHT22;1493;51.496;7.210;2022-10-31T14:20:23;20.70;99.90
2967;DHT22;1493;51.496;7.210;2022-10-31T14:22:52;20.60;99.90
2967;DHT22;1493;51.496;7.210;2022-10-31T14:25:27;20.60;99.90
2967;DHT22;1493;51.496;7.210;2022-10-31T14:27:55;20.60;99.90
2967;DHT22;1493;51.496;7.210;2022-10-31T14:30:24;20.60;99.90
2967;DHT22;1493;51.496;7.210;2022-10-31T14:32:54;20.50;99.90
2967;DHT22;1493;51.496;7.210;2022-10-31T14:35:30;20.50;99.90
2967;DHT22;1493;51.496;7.210;2022-10-31T14:38:20;20.40;99.90
2967;DHT22;1493;51.496;7.210;2022-10-31T14:41:13;20.40;99.90
2967;DHT22;1493;51.496;7.210;2022-10-31T14:43:53;20.30;99.90
2967;DHT22;1493;51.496;7.210;2022-10-31T14:46:35;20.10;99.90
2967;DHT22;1493;51.496;7.210;2022-10-31T14:49:18;20.10;99.90
2967;DHT22;1493;51.496;7.210;2022-10-31T14:51:50;20.00;99.90
2967;DHT22;1493;51.496;7.210;2022-10-31T14:54:24;20.00;99.90
2967;DHT22;1493;51.496;7.210;2022-10-31T14:56:53;19.80;99.90
2967;DHT22;1493;51.496;7.210;2022-10-31T14:59:26;19.80;99.90
2967;DHT22;1493;51.496;7.210;2022-10-31T15:01:56;19.70;99.90
2967;DHT22;1493;51.496;7.210;2022-10-31T15:04:25;19.70;99.90
2967;DHT22;1493;51.496;7.210;2022-10-31T15:06:59;19.70;99.90
2967;DHT22;1493;51.496;7.210;2022-10-31T15:09:30;19.70;99.90
2967;DHT22;1493;51.496;7.210;2022-10-31T15:11:58;19.70;99.90
2967;DHT22;1493;51.496;7.210;2022-10-31T15:14:28;19.60;99.90
2967;DHT22;1493;51.496;7.210;2022-10-31T15:16:57;19.60;99.90
2967;DHT22;1493;51.496;7.210;2022-10-31T15:19:26;19.50;99.90
2967;DHT22;1493;51.496;7.210;2022-10-31T15:21:55;19.50;99.90
2967;DHT22;1493;51.496;7.210;2022-10-31T15:24:24;19.50;99.90
2967;DHT22;1493;51.496;7.210;2022-10-31T15:26:54;19.40;99.90
2967;DHT22;1493;51.496;7.210;2022-10-31T15:29:23;19.40;99.90
2967;DHT22;1493;51.496;7.210;2022-10-31T15:31:51;19.30;99.90
2967;DHT22;1493;51.496;7.210;2022-10-31T15:34:22;19.30;99.90
2967;DHT22;1493;51.496;7.210;2022-10-31T15:36:50;19.30;99.90
2967;DHT22;1493;51.496;7.210;2022-10-31T15:39:20;19.20;99.90
2967;DHT22;1493;51.496;7.210;2022-10-31T15:41:49;19.20;99.90
2967;DHT22;1493;51.496;7.210;2022-10-31T15:44:22;19.10;99.90
2967;DHT22;1493;51.496;7.210;2022-10-31T15:46:58;19.10;99.90
2967;DHT22;1493;51.496;7.210;2022-10-31T15:49:35;19.10;99.90
2967;DHT22;1493;51.496;7.210;2022-10-31T15:52:05;19.10;99.90
2967;DHT22;1493;51.496;7.210;2022-10-31T15:54:33;19.10;99.90
2967;DHT22;1493;51.496;7.210;2022-10-31T15:57:00;19.00;99.90
2967;DHT22;1493;51.496;7.210;2022-10-31T15:59:28;19.00;99.90
2967;DHT22;1493;51.496;7.210;2022-10-31T16:02:01;19.00;99.90
2967;DHT22;1493;51.496;7.210;2022-10-31T16:04:29;18.90;99.90
2967;DHT22;1493;51.496;7.210;2022-10-31T16:06:59;18.90;99.90
2967;DHT22;1493;51.496;7.210;2022-10-31T16:09:26;18.80;99.90
2967;DHT22;1493;51.496;7.210;2022-10-31T16:11:56;18.80;99.90
2967;DHT22;1493;51.496;7.210;2022-10-31T16:14:25;18.70;99.90
2967;DHT22;1493;51.496;7.210;2022-10-31T16:16:56;18.70;99.90
2967;DHT22;1493;51.496;7.210;2022-10-31T16:19:28;18.60;99.90
2967;DHT22;1493;51.496;7.210;2022-10-31T16:22:03;18.50;99.90
2967;DHT22;1493;51.496;7.210;2022-10-31T16:24:32;18.50;99.90
2967;DHT22;1493;51.496;7.210;2022-10-31T16:27:03;18.40;99.90